sensor_id;sensor_type;location;lat;lon;timestamp;P1;durP1;ratioP1;P2;durP2;ratioP2
23236;SDS011;11787;52.018;8.570;2023-05-07T00:01:34;18.13;;;16.23;;
23236;SDS011;11787;52.018;8.570;2023-05-07T00:04:00;18.30;;;16.40;;
23236;SDS011;11787;52.018;8.570;2023-05-07T00:06:26;18.33;;;16.10;;
23236;SDS011;11787;52.018;8.570;2023-05-07T00:08:53;17.67;;;15.77;;
23236;SDS011;11787;52.018;8.570;2023-05-07T00:11:19;20.05;;;16.70;;
23236;SDS011;11787;52.018;8.570;2023-05-07T00:13:45;17.67;;;15.70;;
23236;SDS011;11787;52.018;8.570;2023-05-07T00:16:11;19.42;;;16.65;;
23236;SDS011;11787;52.018;8.570;2023-05-07T00:18:37;18.23;;;16.33;;
23236;SDS011;11787;52.018;8.570;2023-05-07T00:21:02;16.67;;;14.98;;
23236;SDS011;11787;52.018;8.570;2023-05-07T00:23:28;18.35;;;16.20;;
23236;SDS011;11787;52.018;8.570;2023-05-07T00:25:53;18.48;;;15.88;;
23236;SDS011;11787;52.018;8.570;2023-05-07T00:28:19;16.92;;;15.30;;
23236;SDS011;11787;52.018;8.570;2023-05-07T00:30:45;21.48;;;16.88;;
23236;SDS011;11787;52.018;8.570;2023-05-07T00:33:10;17.35;;;15.55;;
23236;SDS011;11787;52.018;8.570;2023-05-07T00:35:36;19.40;;;16.55;;
23236;SDS011;11787;52.018;8.570;2023-05-07T00:38:01;18.67;;;16.45;;
23236;SDS011;11787;52.018;8.570;2023-05-07T00:40:27;18.00;;;16.13;;
23236;SDS011;11787;52.018;8.570;2023-05-07T00:42:53;17.70;;;15.85;;
23236;SDS011;11787;52.018;8.570;2023-05-07T00:45:21;18.55;;;16.10;;
23236;SDS011;11787;52.018;8.570;2023-05-07T00:47:51;21.42;;;16.48;;
23236;SDS011;11787;52.018;8.570;2023-05-07T00:50:18;20.63;;;16.80;;
23236;SDS011;11787;52.018;8.570;2023-05-07T00:52:45;17.33;;;15.45;;
23236;SDS011;11787;52.018;8.570;2023-05-07T00:55:10;21.50;;;16.77;;
23236;SDS011;11787;52.018;8.570;2023-05-07T00:57:38;19.35;;;16.88;;
23236;SDS011;11787;52.018;8.570;2023-05-07T01:00:06;18.50;;;16.10;;
23236;SDS011;11787;52.018;8.570;2023-05-07T01:02:36;18.17;;;16.30;;
23236;SDS011;11787;52.018;8.570;2023-05-07T01:05:02;18.77;;;16.08;;
23236;SDS011;11787;52.018;8.570;2023-05-07T01:07:31;19.75;;;17.52;;
23236;SDS011;11787;52.018;8.570;2023-05-07T01:09:57;18.45;;;16.45;;
23236;SDS011;11787;52.018;8.570;2023-05-07T01:12:23;20.92;;;17.60;;
23236;SDS011;11787;52.018;8.570;2023-05-07T01:14:50;18.80;;;16.80;;
23236;SDS011;11787;52.018;8.570;2023-05-07T01:17:16;22.10;;;18.02;;
23236;SDS011;11787;52.018;8.570;2023-05-07T01:19:42;21.25;;;18.20;;
23236;SDS011;11787;52.018;8.570;2023-05-07T01:22:09;20.63;;;16.48;;
23236;SDS011;11787;52.018;8.570;2023-05-07T01:24:39;23.75;;;18.35;;
23236;SDS011;11787;52.018;8.570;2023-05-07T01:27:06;19.90;;;17.77;;
23236;SDS011;11787;52.018;8.570;2023-05-07T01:29:32;19.98;;;17.00;;
23236;SDS011;11787;52.018;8.570;2023-05-07T01:31:58;19.02;;;16.77;;
23236;SDS011;11787;52.018;8.570;2023-05-07T01:34:25;19.48;;;17.38;;
23236;SDS011;11787;52.018;8.570;2023-05-07T01:36:53;20.27;;;17.02;;
23236;SDS011;11787;52.018;8.570;2023-05-07T01:39:20;19.52;;;16.83;;
23236;SDS011;11787;52.018;8.570;2023-05-07T01:41:49;20.20;;;18.10;;
23236;SDS011;11787;52.018;8.570;2023-05-07T01:44:15;19.88;;;17.80;;
23236;SDS011;11787;52.018;8.570;2023-05-07T01:46:43;19.17;;;17.17;;
23236;SDS011;11787;52.018;8.570;2023-05-07T01:49:08;22.70;;;18.08;;
23236;SDS011;11787;52.018;8.570;2023-05-07T01:51:34;19.77;;;17.67;;
23236;SDS011;11787;52.018;8.570;2023-05-07T01:54:01;21.52;;;18.40;;
23236;SDS011;11787;52.018;8.570;2023-05-07T01:56:26;22.00;;;18.13;;
23236;SDS011;11787;52.018;8.570;2023-05-07T01:58:52;20.25;;;18.15;;
23236;SDS011;11787;52.018;8.570;2023-05-07T02:01:17;21.88;;;18.25;;
23236;SDS011;11787;52.018;8.570;2023-05-07T02:03:43;20.98;;;17.88;;
23236;SDS011;11787;52.018;8.570;2023-05-07T02:06:09;21.40;;;18.33;;
23236;SDS011;11787;52.018;8.570;2023-05-07T02:08:35;20.40;;;18.20;;
23236;SDS011;11787;52.018;8.570;2023-05-07T02:11:00;20.95;;;18.52;;
23236;SDS011;11787;52.018;8.570;2023-05-07T02:13:28;24.38;;;18.73;;
23236;SDS011;11787;52.018;8.570;2023-05-07T02:15:54;20.60;;;18.42;;
23236;SDS011;11787;52.018;8.570;2023-05-07T02:18:20;20.92;;;18.55;;
23236;SDS011;11787;52.018;8.570;2023-05-07T02:20:46;19.55;;;17.55;;
23236;SDS011;11787;52.018;8.570;2023-05-07T02:23:11;19.83;;;17.30;;
23236;SDS011;11787;52.018;8.570;2023-05-07T02:25:37;22.00;;;18.50;;
23236;SDS011;11787;52.018;8.570;2023-05-07T02:28:03;20.27;;;17.08;;
23236;SDS011;11787;52.018;8.570;2023-05-07T02:30:28;20.88;;;18.40;;
23236;SDS011;11787;52.018;8.570;2023-05-07T02:33:18;21.13;;;16.55;;
23236;SDS011;11787;52.018;8.570;2023-05-07T02:35:44;22.70;;;18.75;;
23236;SDS011;11787;52.018;8.570;2023-05-07T02:38:10;19.77;;;17.40;;
23236;SDS011;11787;52.018;8.570;2023-05-07T02:40:36;20.48;;;17.58;;
23236;SDS011;11787;52.018;8.570;2023-05-07T02:43:04;19.25;;;17.25;;
23236;SDS011;11787;52.018;8.570;2023-05-07T02:45:30;19.65;;;16.75;;
23236;SDS011;11787;52.018;8.570;2023-05-07T02:47:57;21.90;;;18.83;;
23236;SDS011;11787;52.018;8.570;2023-05-07T02:50:23;20.20;;;17.52;;
23236;SDS011;11787;52.018;8.570;2023-05-07T02:52:49;18.73;;;16.83;;
23236;SDS011;11787;52.018;8.570;2023-05-07T02:55:15;20.70;;;18.42;;
23236;SDS011;11787;52.018;8.570;2023-05-07T02:57:40;22.33;;;18.05;;
23236;SDS011;11787;52.018;8.570;2023-05-07T03:00:18;21.15;;;18.48;;
23236;SDS011;11787;52.018;8.570;2023-05-07T03:02:44;20.70;;;18.48;;
23236;SDS011;11787;52.018;8.570;2023-05-07T03:05:10;22.02;;;19.20;;
23236;SDS011;11787;52.018;8.570;2023-05-07T03:07:36;22.10;;;19.10;;
23236;SDS011;11787;52.018;8.570;2023-05-07T03:10:03;20.15;;;17.77;;
23236;SDS011;11787;52.018;8.570;2023-05-07T03:12:29;22.63;;;19.10;;
23236;SDS011;11787;52.018;8.570;2023-05-07T03:14:55;20.42;;;18.23;;
23236;SDS011;11787;52.018;8.570;2023-05-07T03:17:21;22.80;;;18.92;;
23236;SDS011;11787;52.018;8.570;2023-05-07T03:19:47;20.60;;;18.38;;
23236;SDS011;11787;52.018;8.570;2023-05-07T03:22:12;22.23;;;19.02;;
23236;SDS011;11787;52.018;8.570;2023-05-07T03:24:38;21.73;;;18.52;;
23236;SDS011;11787;52.018;8.570;2023-05-07T03:27:03;20.95;;;18.35;;
23236;SDS011;11787;52.018;8.570;2023-05-07T03:29:29;22.88;;;18.40;;
23236;SDS011;11787;52.018;8.570;2023-05-07T03:31:54;22.58;;;18.98;;
23236;SDS011;11787;52.018;8.570;2023-05-07T03:34:20;21.90;;;19.15;;
23236;SDS011;11787;52.018;8.570;2023-05-07T03:36:49;23.13;;;19.65;;
23236;SDS011;11787;52.018;8.570;2023-05-07T03:39:15;22.58;;;19.83;;
23236;SDS011;11787;52.018;8.570;2023-05-07T03:41:41;22.70;;;19.08;;
23236;SDS011;11787;52.018;8.570;2023-05-07T03:44:06;21.05;;;18.77;;
23236;SDS011;11787;52.018;8.570;2023-05-07T03:46:32;22.02;;;18.65;;
23236;SDS011;11787;52.018;8.570;2023-05-07T03:48:59;22.58;;;19.88;;
23236;SDS011;11787;52.018;8.570;2023-05-07T03:51:24;21.05;;;18.38;;
23236;SDS011;11787;52.018;8.570;2023-05-07T03:53:50;22.27;;;19.40;;
23236;SDS011;11787;52.018;8.570;2023-05-07T03:56:19;21.90;;;18.77;;
23236;SDS011;11787;52.018;8.570;2023-05-07T03:58:45;21.90;;;19.58;;
23236;SDS011;11787;52.018;8.570;2023-05-07T04:01:12;21.88;;;19.35;;
23236;SDS011;11787;52.018;8.570;2023-05-07T04:03:37;21.67;;;19.38;;
23236;SDS011;11787;52.018;8.570;2023-05-07T04:06:03;21.65;;;19.00;;
23236;SDS011;11787;52.018;8.570;2023-05-07T04:08:29;24.35;;;20.42;;
23236;SDS011;11787;52.018;8.570;2023-05-07T04:10:57;21.73;;;18.63;;
23236;SDS011;11787;52.018;8.570;2023-05-07T04:13:23;22.90;;;19.63;;
23236;SDS011;11787;52.018;8.570;2023-05-07T04:15:50;25.13;;;20.23;;
23236;SDS011;11787;52.018;8.570;2023-05-07T04:18:17;22.73;;;18.75;;
23236;SDS011;11787;52.018;8.570;2023-05-07T04:20:42;20.48;;;18.33;;
23236;SDS011;11787;52.018;8.570;2023-05-07T04:23:08;20.88;;;18.55;;
23236;SDS011;11787;52.018;8.570;2023-05-07T04:25:34;22.17;;;19.77;;
23236;SDS011;11787;52.018;8.570;2023-05-07T04:27:59;22.50;;;20.05;;
23236;SDS011;11787;52.018;8.570;2023-05-07T04:30:25;22.55;;;20.15;;
23236;SDS011;11787;52.018;8.570;2023-05-07T04:32:51;24.00;;;20.80;;
23236;SDS011;11787;52.018;8.570;2023-05-07T04:35:17;22.83;;;19.27;;
23236;SDS011;11787;52.018;8.570;2023-05-07T04:37:43;21.67;;;18.92;;
23236;SDS011;11787;52.018;8.570;2023-05-07T04:40:09;22.27;;;19.83;;
23236;SDS011;11787;52.018;8.570;2023-05-07T04:42:35;23.98;;;19.85;;
23236;SDS011;11787;52.018;8.570;2023-05-07T04:45:01;26.23;;;20.67;;
23236;SDS011;11787;52.018;8.570;2023-05-07T04:47:27;22.88;;;19.98;;
23236;SDS011;11787;52.018;8.570;2023-05-07T04:49:52;24.60;;;20.80;;
23236;SDS011;11787;52.018;8.570;2023-05-07T04:52:18;22.42;;;19.27;;
23236;SDS011;11787;52.018;8.570;2023-05-07T04:54:43;23.90;;;20.35;;
23236;SDS011;11787;52.018;8.570;2023-05-07T04:57:09;23.52;;;20.80;;
23236;SDS011;11787;52.018;8.570;2023-05-07T04:59:34;21.35;;;19.13;;
23236;SDS011;11787;52.018;8.570;2023-05-07T05:02:00;23.00;;;20.45;;
23236;SDS011;11787;52.018;8.570;2023-05-07T05:04:26;24.52;;;21.90;;
23236;SDS011;11787;52.018;8.570;2023-05-07T05:06:52;22.30;;;19.85;;
23236;SDS011;11787;52.018;8.570;2023-05-07T05:09:17;24.77;;;21.70;;
23236;SDS011;11787;52.018;8.570;2023-05-07T05:11:43;24.33;;;20.88;;
23236;SDS011;11787;52.018;8.570;2023-05-07T05:14:09;24.55;;;20.42;;
23236;SDS011;11787;52.018;8.570;2023-05-07T05:16:34;22.90;;;20.33;;
23236;SDS011;11787;52.018;8.570;2023-05-07T05:19:01;22.63;;;20.30;;
23236;SDS011;11787;52.018;8.570;2023-05-07T05:21:27;22.17;;;19.83;;
23236;SDS011;11787;52.018;8.570;2023-05-07T05:23:52;24.90;;;21.33;;
23236;SDS011;11787;52.018;8.570;2023-05-07T05:26:18;26.30;;;20.77;;
23236;SDS011;11787;52.018;8.570;2023-05-07T05:28:43;23.33;;;20.85;;
23236;SDS011;11787;52.018;8.570;2023-05-07T05:31:09;23.20;;;19.67;;
23236;SDS011;11787;52.018;8.570;2023-05-07T05:33:35;24.25;;;20.10;;
23236;SDS011;11787;52.018;8.570;2023-05-07T05:36:00;22.08;;;19.65;;
23236;SDS011;11787;52.018;8.570;2023-05-07T05:38:26;24.13;;;20.83;;
23236;SDS011;11787;52.018;8.570;2023-05-07T05:40:52;22.95;;;20.45;;
23236;SDS011;11787;52.018;8.570;2023-05-07T05:43:17;28.20;;;20.52;;
23236;SDS011;11787;52.018;8.570;2023-05-07T05:45:43;21.95;;;19.02;;
23236;SDS011;11787;52.018;8.570;2023-05-07T05:48:09;22.23;;;19.55;;
23236;SDS011;11787;52.018;8.570;2023-05-07T05:50:34;21.65;;;19.02;;
23236;SDS011;11787;52.018;8.570;2023-05-07T05:53:03;25.67;;;19.65;;
23236;SDS011;11787;52.018;8.570;2023-05-07T05:55:28;23.70;;;19.73;;
23236;SDS011;11787;52.018;8.570;2023-05-07T05:57:54;22.98;;;19.90;;
23236;SDS011;11787;52.018;8.570;2023-05-07T06:00:21;24.17;;;19.50;;
23236;SDS011;11787;52.018;8.570;2023-05-07T06:02:47;21.85;;;19.10;;
23236;SDS011;11787;52.018;8.570;2023-05-07T06:05:13;20.48;;;17.17;;
23236;SDS011;11787;52.018;8.570;2023-05-07T06:07:38;20.88;;;17.48;;
23236;SDS011;11787;52.018;8.570;2023-05-07T06:10:04;22.55;;;18.27;;
23236;SDS011;11787;52.018;8.570;2023-05-07T06:12:30;20.55;;;17.20;;
23236;SDS011;11787;52.018;8.570;2023-05-07T06:14:56;20.02;;;17.27;;
23236;SDS011;11787;52.018;8.570;2023-05-07T06:17:22;22.02;;;17.85;;
23236;SDS011;11787;52.018;8.570;2023-05-07T06:19:47;22.63;;;17.15;;
23236;SDS011;11787;52.018;8.570;2023-05-07T06:22:13;19.30;;;16.35;;
23236;SDS011;11787;52.018;8.570;2023-05-07T06:24:38;21.38;;;17.67;;
23236;SDS011;11787;52.018;8.570;2023-05-07T06:27:04;19.48;;;16.90;;
23236;SDS011;11787;52.018;8.570;2023-05-07T06:29:30;20.02;;;16.83;;
23236;SDS011;11787;52.018;8.570;2023-05-07T06:32:02;17.58;;;15.13;;
23236;SDS011;11787;52.018;8.570;2023-05-07T06:34:31;19.48;;;17.35;;
23236;SDS011;11787;52.018;8.570;2023-05-07T06:36:57;19.52;;;16.70;;
23236;SDS011;11787;52.018;8.570;2023-05-07T06:39:23;21.63;;;16.50;;
23236;SDS011;11787;52.018;8.570;2023-05-07T06:41:49;19.67;;;15.15;;
23236;SDS011;11787;52.018;8.570;2023-05-07T06:44:14;18.27;;;15.10;;
23236;SDS011;11787;52.018;8.570;2023-05-07T06:46:40;18.38;;;16.02;;
23236;SDS011;11787;52.018;8.570;2023-05-07T06:49:06;18.48;;;16.20;;
23236;SDS011;11787;52.018;8.570;2023-05-07T06:51:32;17.98;;;15.25;;
23236;SDS011;11787;52.018;8.570;2023-05-07T06:53:58;18.08;;;15.25;;
23236;SDS011;11787;52.018;8.570;2023-05-07T06:56:24;17.65;;;14.50;;
23236;SDS011;11787;52.018;8.570;2023-05-07T06:58:50;17.50;;;14.98;;
23236;SDS011;11787;52.018;8.570;2023-05-07T07:01:15;17.02;;;15.02;;
23236;SDS011;11787;52.018;8.570;2023-05-07T07:03:41;16.42;;;14.50;;
23236;SDS011;11787;52.018;8.570;2023-05-07T07:06:06;17.00;;;14.68;;
23236;SDS011;11787;52.018;8.570;2023-05-07T07:08:32;18.58;;;13.88;;
23236;SDS011;11787;52.018;8.570;2023-05-07T07:10:58;17.35;;;14.30;;
23236;SDS011;11787;52.018;8.570;2023-05-07T07:13:23;19.15;;;15.15;;
23236;SDS011;11787;52.018;8.570;2023-05-07T07:15:49;17.75;;;14.07;;
23236;SDS011;11787;52.018;8.570;2023-05-07T07:18:15;16.77;;;14.07;;
23236;SDS011;11787;52.018;8.570;2023-05-07T07:20:40;14.25;;;12.65;;
23236;SDS011;11787;52.018;8.570;2023-05-07T07:23:06;15.45;;;13.48;;
23236;SDS011;11787;52.018;8.570;2023-05-07T07:25:32;16.40;;;12.68;;
23236;SDS011;11787;52.018;8.570;2023-05-07T07:27:57;15.07;;;13.32;;
23236;SDS011;11787;52.018;8.570;2023-05-07T07:30:23;14.63;;;13.02;;
23236;SDS011;11787;52.018;8.570;2023-05-07T07:32:48;16.02;;;13.25;;
23236;SDS011;11787;52.018;8.570;2023-05-07T07:35:14;15.20;;;13.02;;
23236;SDS011;11787;52.018;8.570;2023-05-07T07:37:40;14.07;;;12.35;;
23236;SDS011;11787;52.018;8.570;2023-05-07T07:40:06;15.23;;;13.63;;
23236;SDS011;11787;52.018;8.570;2023-05-07T07:42:32;15.27;;;12.93;;
23236;SDS011;11787;52.018;8.570;2023-05-07T07:44:57;15.27;;;13.02;;
23236;SDS011;11787;52.018;8.570;2023-05-07T07:47:23;15.18;;;13.00;;
23236;SDS011;11787;52.018;8.570;2023-05-07T07:49:48;13.55;;;12.10;;
23236;SDS011;11787;52.018;8.570;2023-05-07T07:52:14;16.20;;;13.25;;
23236;SDS011;11787;52.018;8.570;2023-05-07T07:54:40;13.32;;;11.65;;
23236;SDS011;11787;52.018;8.570;2023-05-07T07:57:06;14.68;;;12.98;;
23236;SDS011;11787;52.018;8.570;2023-05-07T07:59:31;14.52;;;11.25;;
23236;SDS011;11787;52.018;8.570;2023-05-07T08:01:57;12.40;;;11.10;;
23236;SDS011;11787;52.018;8.570;2023-05-07T08:04:22;13.18;;;11.77;;
23236;SDS011;11787;52.018;8.570;2023-05-07T08:06:48;12.60;;;11.35;;
23236;SDS011;11787;52.018;8.570;2023-05-07T08:09:14;13.00;;;11.60;;
23236;SDS011;11787;52.018;8.570;2023-05-07T08:11:39;12.10;;;10.57;;
23236;SDS011;11787;52.018;8.570;2023-05-07T08:14:05;11.98;;;10.43;;
23236;SDS011;11787;52.018;8.570;2023-05-07T08:16:31;11.02;;;9.82;;
23236;SDS011;11787;52.018;8.570;2023-05-07T08:18:57;12.48;;;10.80;;
23236;SDS011;11787;52.018;8.570;2023-05-07T08:21:22;11.68;;;10.48;;
23236;SDS011;11787;52.018;8.570;2023-05-07T08:23:48;14.13;;;9.52;;
23236;SDS011;11787;52.018;8.570;2023-05-07T08:26:14;11.50;;;9.63;;
23236;SDS011;11787;52.018;8.570;2023-05-07T08:28:40;10.85;;;9.75;;
23236;SDS011;11787;52.018;8.570;2023-05-07T08:31:05;10.35;;;9.25;;
23236;SDS011;11787;52.018;8.570;2023-05-07T08:33:31;10.50;;;9.40;;
23236;SDS011;11787;52.018;8.570;2023-05-07T08:35:56;12.10;;;9.15;;
23236;SDS011;11787;52.018;8.570;2023-05-07T08:38:22;10.68;;;9.57;;
23236;SDS011;11787;52.018;8.570;2023-05-07T08:40:47;10.40;;;9.30;;
23236;SDS011;11787;52.018;8.570;2023-05-07T08:43:13;10.77;;;9.48;;
23236;SDS011;11787;52.018;8.570;2023-05-07T08:45:40;10.52;;;9.48;;
23236;SDS011;11787;52.018;8.570;2023-05-07T08:48:10;10.02;;;9.02;;
23236;SDS011;11787;52.018;8.570;2023-05-07T08:50:40;9.85;;;8.85;;
23236;SDS011;11787;52.018;8.570;2023-05-07T08:53:06;9.98;;;8.70;;
23236;SDS011;11787;52.018;8.570;2023-05-07T08:55:31;10.60;;;9.50;;
23236;SDS011;11787;52.018;8.570;2023-05-07T08:57:58;10.20;;;8.98;;
23236;SDS011;11787;52.018;8.570;2023-05-07T09:00:24;9.90;;;8.90;;
23236;SDS011;11787;52.018;8.570;2023-05-07T09:02:49;9.40;;;8.40;;
23236;SDS011;11787;52.018;8.570;2023-05-07T09:05:15;9.80;;;8.63;;
23236;SDS011;11787;52.018;8.570;2023-05-07T09:07:41;10.32;;;9.27;;
23236;SDS011;11787;52.018;8.570;2023-05-07T09:10:07;9.52;;;8.57;;
23236;SDS011;11787;52.018;8.570;2023-05-07T09:12:33;10.73;;;9.63;;
23236;SDS011;11787;52.018;8.570;2023-05-07T09:15:00;9.15;;;8.25;;
23236;SDS011;11787;52.018;8.570;2023-05-07T09:17:26;9.65;;;8.45;;
23236;SDS011;11787;52.018;8.570;2023-05-07T09:19:51;10.30;;;9.23;;
23236;SDS011;11787;52.018;8.570;2023-05-07T09:22:18;11.07;;;8.90;;
23236;SDS011;11787;52.018;8.570;2023-05-07T09:24:47;10.00;;;8.93;;
23236;SDS011;11787;52.018;8.570;2023-05-07T09:27:14;9.98;;;9.00;;
23236;SDS011;11787;52.018;8.570;2023-05-07T09:29:40;9.88;;;8.88;;
23236;SDS011;11787;52.018;8.570;2023-05-07T09:32:06;9.65;;;8.35;;
23236;SDS011;11787;52.018;8.570;2023-05-07T09:34:32;10.00;;;8.82;;
23236;SDS011;11787;52.018;8.570;2023-05-07T09:36:59;9.50;;;8.50;;
23236;SDS011;11787;52.018;8.570;2023-05-07T09:39:25;9.48;;;8.57;;
23236;SDS011;11787;52.018;8.570;2023-05-07T09:41:51;9.20;;;8.30;;
23236;SDS011;11787;52.018;8.570;2023-05-07T09:44:19;10.63;;;8.93;;
23236;SDS011;11787;52.018;8.570;2023-05-07T09:46:45;10.15;;;9.02;;
23236;SDS011;11787;52.018;8.570;2023-05-07T09:49:20;9.65;;;8.23;;
23236;SDS011;11787;52.018;8.570;2023-05-07T09:51:49;8.70;;;7.90;;
23236;SDS011;11787;52.018;8.570;2023-05-07T09:54:16;9.13;;;8.18;;
23236;SDS011;11787;52.018;8.570;2023-05-07T09:56:43;9.18;;;8.27;;
23236;SDS011;11787;52.018;8.570;2023-05-07T09:59:10;9.00;;;8.05;;
23236;SDS011;11787;52.018;8.570;2023-05-07T10:01:38;9.13;;;8.15;;
23236;SDS011;11787;52.018;8.570;2023-05-07T10:04:07;8.73;;;7.93;;
23236;SDS011;11787;52.018;8.570;2023-05-07T10:06:36;8.90;;;7.97;;
23236;SDS011;11787;52.018;8.570;2023-05-07T10:09:03;9.30;;;7.78;;
23236;SDS011;11787;52.018;8.570;2023-05-07T10:11:35;13.48;;;9.35;;
23236;SDS011;11787;52.018;8.570;2023-05-07T10:14:01;9.20;;;8.25;;
23236;SDS011;11787;52.018;8.570;2023-05-07T10:16:31;9.07;;;8.18;;
23236;SDS011;11787;52.018;8.570;2023-05-07T10:19:01;9.57;;;7.75;;
23236;SDS011;11787;52.018;8.570;2023-05-07T10:21:28;8.30;;;7.43;;
23236;SDS011;11787;52.018;8.570;2023-05-07T10:24:00;10.52;;;7.20;;
23236;SDS011;11787;52.018;8.570;2023-05-07T10:26:33;8.10;;;6.93;;
23236;SDS011;11787;52.018;8.570;2023-05-07T10:29:04;10.75;;;8.38;;
23236;SDS011;11787;52.018;8.570;2023-05-07T10:31:59;9.40;;;7.15;;
23236;SDS011;11787;52.018;8.570;2023-05-07T10:34:37;8.80;;;7.40;;
23236;SDS011;11787;52.018;8.570;2023-05-07T10:37:05;8.43;;;7.18;;
23236;SDS011;11787;52.018;8.570;2023-05-07T10:39:32;7.72;;;6.93;;
23236;SDS011;11787;52.018;8.570;2023-05-07T10:42:06;7.82;;;7.03;;
23236;SDS011;11787;52.018;8.570;2023-05-07T10:44:33;7.80;;;7.00;;
23236;SDS011;11787;52.018;8.570;2023-05-07T10:47:13;7.57;;;6.78;;
23236;SDS011;11787;52.018;8.570;2023-05-07T10:52:22;7.30;;;6.60;;
23236;SDS011;11787;52.018;8.570;2023-05-07T10:55:18;7.20;;;6.50;;
23236;SDS011;11787;52.018;8.570;2023-05-07T10:57:46;9.55;;;6.00;;
23236;SDS011;11787;52.018;8.570;2023-05-07T11:05:24;6.78;;;6.18;;
23236;SDS011;11787;52.018;8.570;2023-05-07T11:16:19;5.32;;;4.82;;
23236;SDS011;11787;52.018;8.570;2023-05-07T11:18:47;5.20;;;4.70;;
23236;SDS011;11787;52.018;8.570;2023-05-07T11:21:13;6.13;;;4.80;;
23236;SDS011;11787;52.018;8.570;2023-05-07T11:24:00;5.20;;;4.70;;
23236;SDS011;11787;52.018;8.570;2023-05-07T11:26:28;5.20;;;4.70;;
23236;SDS011;11787;52.018;8.570;2023-05-07T11:28:56;6.80;;;5.15;;
23236;SDS011;11787;52.018;8.570;2023-05-07T11:31:25;4.70;;;4.10;;
23236;SDS011;11787;52.018;8.570;2023-05-07T11:33:53;5.30;;;4.80;;
23236;SDS011;11787;52.018;8.570;2023-05-07T11:36:21;5.70;;;4.93;;
23236;SDS011;11787;52.018;8.570;2023-05-07T11:38:47;4.13;;;3.72;;
23236;SDS011;11787;52.018;8.570;2023-05-07T11:41:15;4.60;;;4.20;;
23236;SDS011;11787;52.018;8.570;2023-05-07T11:44:03;4.63;;;4.18;;
23236;SDS011;11787;52.018;8.570;2023-05-07T11:46:28;6.75;;;4.22;;
23236;SDS011;11787;52.018;8.570;2023-05-07T11:48:54;4.63;;;3.95;;
23236;SDS011;11787;52.018;8.570;2023-05-07T11:51:21;4.97;;;4.47;;
23236;SDS011;11787;52.018;8.570;2023-05-07T11:53:48;4.60;;;4.15;;
23236;SDS011;11787;52.018;8.570;2023-05-07T11:56:15;5.15;;;3.75;;
23236;SDS011;11787;52.018;8.570;2023-05-07T11:58:43;4.85;;;4.30;;
23236;SDS011;11787;52.018;8.570;2023-05-07T12:01:10;4.93;;;4.43;;
23236;SDS011;11787;52.018;8.570;2023-05-07T12:03:37;6.35;;;3.28;;
23236;SDS011;11787;52.018;8.570;2023-05-07T12:06:08;5.82;;;4.70;;
23236;SDS011;11787;52.018;8.570;2023-05-07T12:08:36;3.92;;;3.50;;
23236;SDS011;11787;52.018;8.570;2023-05-07T12:11:03;4.50;;;4.00;;
23236;SDS011;11787;52.018;8.570;2023-05-07T12:13:31;4.65;;;4.22;;
23236;SDS011;11787;52.018;8.570;2023-05-07T12:15:57;5.10;;;4.60;;
23236;SDS011;11787;52.018;8.570;2023-05-07T12:18:23;5.50;;;4.88;;
23236;SDS011;11787;52.018;8.570;2023-05-07T12:20:49;5.45;;;4.88;;
23236;SDS011;11787;52.018;8.570;2023-05-07T12:23:16;5.57;;;4.45;;
23236;SDS011;11787;52.018;8.570;2023-05-07T12:25:42;5.18;;;4.63;;
23236;SDS011;11787;52.018;8.570;2023-05-07T12:28:13;6.32;;;5.72;;
23236;SDS011;11787;52.018;8.570;2023-05-07T12:30:43;4.82;;;4.32;;
23236;SDS011;11787;52.018;8.570;2023-05-07T12:33:09;4.13;;;3.75;;
23236;SDS011;11787;52.018;8.570;2023-05-07T12:35:36;6.13;;;4.05;;
23236;SDS011;11787;52.018;8.570;2023-05-07T12:38:15;6.18;;;5.57;;
23236;SDS011;11787;52.018;8.570;2023-05-07T12:40:45;8.38;;;4.25;;
23236;SDS011;11787;52.018;8.570;2023-05-07T12:43:26;4.18;;;3.78;;
23236;SDS011;11787;52.018;8.570;2023-05-07T12:45:53;5.20;;;4.40;;
23236;SDS011;11787;52.018;8.570;2023-05-07T12:48:21;6.30;;;5.50;;
23236;SDS011;11787;52.018;8.570;2023-05-07T12:50:51;5.35;;;4.80;;
23236;SDS011;11787;52.018;8.570;2023-05-07T12:53:17;4.80;;;3.75;;
23236;SDS011;11787;52.018;8.570;2023-05-07T12:55:47;5.40;;;3.60;;
23236;SDS011;11787;52.018;8.570;2023-05-07T12:58:15;7.78;;;4.40;;
23236;SDS011;11787;52.018;8.570;2023-05-07T13:00:52;4.10;;;3.70;;
23236;SDS011;11787;52.018;8.570;2023-05-07T13:03:25;4.68;;;4.28;;
23236;SDS011;11787;52.018;8.570;2023-05-07T13:08:28;4.40;;;3.72;;
23236;SDS011;11787;52.018;8.570;2023-05-07T13:11:01;4.15;;;3.60;;
23236;SDS011;11787;52.018;8.570;2023-05-07T13:13:29;3.85;;;3.55;;
23236;SDS011;11787;52.018;8.570;2023-05-07T13:15:55;4.43;;;4.03;;
23236;SDS011;11787;52.018;8.570;2023-05-07T13:18:21;4.35;;;3.95;;
23236;SDS011;11787;52.018;8.570;2023-05-07T13:20:47;4.88;;;3.78;;
23236;SDS011;11787;52.018;8.570;2023-05-07T13:23:12;4.00;;;3.60;;
23236;SDS011;11787;52.018;8.570;2023-05-07T13:25:38;6.63;;;4.45;;
23236;SDS011;11787;52.018;8.570;2023-05-07T13:28:03;4.20;;;3.72;;
23236;SDS011;11787;52.018;8.570;2023-05-07T13:30:29;4.57;;;3.58;;
23236;SDS011;11787;52.018;8.570;2023-05-07T13:32:55;4.97;;;4.07;;
23236;SDS011;11787;52.018;8.570;2023-05-07T13:35:21;5.43;;;4.93;;
23236;SDS011;11787;52.018;8.570;2023-05-07T13:37:47;5.50;;;4.10;;
23236;SDS011;11787;52.018;8.570;2023-05-07T13:40:17;4.95;;;4.45;;
23236;SDS011;11787;52.018;8.570;2023-05-07T13:42:43;4.70;;;4.30;;
23236;SDS011;11787;52.018;8.570;2023-05-07T13:45:09;4.50;;;3.95;;
23236;SDS011;11787;52.018;8.570;2023-05-07T13:47:35;6.07;;;4.68;;
23236;SDS011;11787;52.018;8.570;2023-05-07T13:50:00;5.10;;;3.85;;
23236;SDS011;11787;52.018;8.570;2023-05-07T13:52:26;5.20;;;4.70;;
23236;SDS011;11787;52.018;8.570;2023-05-07T13:54:51;5.13;;;4.63;;
23236;SDS011;11787;52.018;8.570;2023-05-07T13:57:17;4.40;;;4.00;;
23236;SDS011;11787;52.018;8.570;2023-05-07T13:59:43;4.25;;;3.85;;
23236;SDS011;11787;52.018;8.570;2023-05-07T14:02:09;5.32;;;4.25;;
23236;SDS011;11787;52.018;8.570;2023-05-07T14:04:34;5.53;;;4.68;;
23236;SDS011;11787;52.018;8.570;2023-05-07T14:07:00;5.93;;;5.05;;
23236;SDS011;11787;52.018;8.570;2023-05-07T14:09:25;5.38;;;4.82;;
23236;SDS011;11787;52.018;8.570;2023-05-07T14:11:51;6.00;;;5.40;;
23236;SDS011;11787;52.018;8.570;2023-05-07T14:14:17;5.50;;;4.70;;
23236;SDS011;11787;52.018;8.570;2023-05-07T14:16:43;5.55;;;4.72;;
23236;SDS011;11787;52.018;8.570;2023-05-07T14:19:10;5.32;;;4.82;;
23236;SDS011;11787;52.018;8.570;2023-05-07T14:21:36;5.60;;;5.10;;
23236;SDS011;11787;52.018;8.570;2023-05-07T14:24:02;5.15;;;4.65;;
23236;SDS011;11787;52.018;8.570;2023-05-07T14:26:28;5.43;;;4.93;;
23236;SDS011;11787;52.018;8.570;2023-05-07T14:28:54;6.28;;;5.13;;
23236;SDS011;11787;52.018;8.570;2023-05-07T14:31:22;5.97;;;5.40;;
23236;SDS011;11787;52.018;8.570;2023-05-07T14:33:48;6.50;;;5.90;;
23236;SDS011;11787;52.018;8.570;2023-05-07T14:36:15;6.95;;;6.35;;
23236;SDS011;11787;52.018;8.570;2023-05-07T14:59:39;7.25;;;6.50;;
23236;SDS011;11787;52.018;8.570;2023-05-07T15:02:06;6.57;;;5.97;;
23236;SDS011;11787;52.018;8.570;2023-05-07T15:04:32;7.57;;;6.88;;
23236;SDS011;11787;52.018;8.570;2023-05-07T15:06:58;9.40;;;5.72;;
23236;SDS011;11787;52.018;8.570;2023-05-07T15:09:25;6.97;;;6.28;;